sensor_id;sensor_type;location;lat;lon;timestamp;P1;durP1;ratioP1;P2;durP2;ratioP2
55368;SDS011;41247;49.736;8.752;2023-05-07T00:01:48;3.05;;;1.45;;
55368;SDS011;41247;49.736;8.752;2023-05-07T00:05:29;2.35;;;1.73;;
55368;SDS011;41247;49.736;8.752;2023-05-07T00:09:10;3.30;;;1.60;;
55368;SDS011;41247;49.736;8.752;2023-05-07T00:12:50;3.72;;;1.92;;
55368;SDS011;41247;49.736;8.752;2023-05-07T00:16:31;3.08;;;1.40;;
55368;SDS011;41247;49.736;8.752;2023-05-07T00:20:11;7.60;;;1.98;;
55368;SDS011;41247;49.736;8.752;2023-05-07T00:23:52;2.95;;;1.60;;
55368;SDS011;41247;49.736;8.752;2023-05-07T00:27:34;4.75;;;2.00;;
55368;SDS011;41247;49.736;8.752;2023-05-07T00:31:14;3.47;;;2.20;;
55368;SDS011;41247;49.736;8.752;2023-05-07T00:34:55;5.97;;;2.90;;
55368;SDS011;41247;49.736;8.752;2023-05-07T00:38:35;4.63;;;3.10;;
55368;SDS011;41247;49.736;8.752;2023-05-07T00:42:16;3.35;;;2.17;;
55368;SDS011;41247;49.736;8.752;2023-05-07T00:45:56;4.38;;;2.42;;
55368;SDS011;41247;49.736;8.752;2023-05-07T00:49:44;4.18;;;2.35;;
55368;SDS011;41247;49.736;8.752;2023-05-07T00:53:25;4.20;;;2.03;;
55368;SDS011;41247;49.736;8.752;2023-05-07T00:57:05;2.90;;;1.60;;
55368;SDS011;41247;49.736;8.752;2023-05-07T01:00:46;4.10;;;1.90;;
55368;SDS011;41247;49.736;8.752;2023-05-07T01:04:27;2.30;;;1.88;;
55368;SDS011;41247;49.736;8.752;2023-05-07T01:08:07;2.72;;;1.80;;
55368;SDS011;41247;49.736;8.752;2023-05-07T01:11:49;3.03;;;1.92;;
55368;SDS011;41247;49.736;8.752;2023-05-07T01:15:30;3.60;;;1.88;;
55368;SDS011;41247;49.736;8.752;2023-05-07T01:19:11;3.17;;;1.85;;
55368;SDS011;41247;49.736;8.752;2023-05-07T01:22:52;3.17;;;2.50;;
55368;SDS011;41247;49.736;8.752;2023-05-07T01:26:33;2.85;;;1.92;;
55368;SDS011;41247;49.736;8.752;2023-05-07T01:30:14;3.58;;;2.05;;
55368;SDS011;41247;49.736;8.752;2023-05-07T01:33:56;4.50;;;2.38;;
55368;SDS011;41247;49.736;8.752;2023-05-07T01:37:38;2.75;;;2.00;;
55368;SDS011;41247;49.736;8.752;2023-05-07T01:41:20;4.53;;;1.88;;
55368;SDS011;41247;49.736;8.752;2023-05-07T01:45:01;3.15;;;2.05;;
55368;SDS011;41247;49.736;8.752;2023-05-07T01:48:42;5.38;;;1.88;;
55368;SDS011;41247;49.736;8.752;2023-05-07T01:52:25;1.95;;;1.77;;
55368;SDS011;41247;49.736;8.752;2023-05-07T01:56:05;5.90;;;1.90;;
55368;SDS011;41247;49.736;8.752;2023-05-07T01:59:47;4.85;;;1.90;;
55368;SDS011;41247;49.736;8.752;2023-05-07T02:03:27;3.88;;;2.33;;
55368;SDS011;41247;49.736;8.752;2023-05-07T02:07:08;3.28;;;1.95;;
55368;SDS011;41247;49.736;8.752;2023-05-07T02:10:48;3.17;;;1.80;;
55368;SDS011;41247;49.736;8.752;2023-05-07T02:14:29;3.05;;;2.20;;
55368;SDS011;41247;49.736;8.752;2023-05-07T02:18:10;2.30;;;2.10;;
55368;SDS011;41247;49.736;8.752;2023-05-07T02:21:50;5.05;;;2.15;;
55368;SDS011;41247;49.736;8.752;2023-05-07T02:25:31;4.03;;;2.33;;
55368;SDS011;41247;49.736;8.752;2023-05-07T02:29:11;2.45;;;1.80;;
55368;SDS011;41247;49.736;8.752;2023-05-07T02:32:52;5.90;;;2.00;;
55368;SDS011;41247;49.736;8.752;2023-05-07T02:36:33;2.95;;;2.40;;
55368;SDS011;41247;49.736;8.752;2023-05-07T02:40:13;3.95;;;2.50;;
55368;SDS011;41247;49.736;8.752;2023-05-07T02:43:54;2.30;;;1.90;;
55368;SDS011;41247;49.736;8.752;2023-05-07T02:47:34;6.30;;;2.28;;
55368;SDS011;41247;49.736;8.752;2023-05-07T02:51:16;3.75;;;2.30;;
55368;SDS011;41247;49.736;8.752;2023-05-07T02:55:01;2.83;;;2.00;;
55368;SDS011;41247;49.736;8.752;2023-05-07T02:58:42;5.72;;;2.63;;
55368;SDS011;41247;49.736;8.752;2023-05-07T03:02:22;3.08;;;2.50;;
55368;SDS011;41247;49.736;8.752;2023-05-07T03:06:03;4.70;;;2.90;;
55368;SDS011;41247;49.736;8.752;2023-05-07T03:09:44;4.78;;;2.72;;
55368;SDS011;41247;49.736;8.752;2023-05-07T03:13:24;3.30;;;2.78;;
55368;SDS011;41247;49.736;8.752;2023-05-07T03:17:05;4.80;;;3.25;;
55368;SDS011;41247;49.736;8.752;2023-05-07T03:20:45;3.63;;;2.72;;
55368;SDS011;41247;49.736;8.752;2023-05-07T03:24:28;3.35;;;2.92;;
55368;SDS011;41247;49.736;8.752;2023-05-07T03:28:08;3.45;;;3.15;;
55368;SDS011;41247;49.736;8.752;2023-05-07T03:31:49;3.72;;;2.70;;
55368;SDS011;41247;49.736;8.752;2023-05-07T03:35:30;5.30;;;3.30;;
55368;SDS011;41247;49.736;8.752;2023-05-07T03:39:10;5.13;;;3.33;;
55368;SDS011;41247;49.736;8.752;2023-05-07T03:42:51;4.97;;;3.10;;
55368;SDS011;41247;49.736;8.752;2023-05-07T03:46:32;2.65;;;2.42;;
55368;SDS011;41247;49.736;8.752;2023-05-07T03:50:13;4.07;;;2.95;;
55368;SDS011;41247;49.736;8.752;2023-05-07T03:53:54;3.65;;;2.78;;
55368;SDS011;41247;49.736;8.752;2023-05-07T03:57:34;6.75;;;3.40;;
55368;SDS011;41247;49.736;8.752;2023-05-07T04:01:15;4.95;;;3.10;;
55368;SDS011;41247;49.736;8.752;2023-05-07T04:04:56;3.55;;;2.53;;
55368;SDS011;41247;49.736;8.752;2023-05-07T04:08:36;5.03;;;2.42;;
55368;SDS011;41247;49.736;8.752;2023-05-07T04:12:17;6.50;;;3.20;;
55368;SDS011;41247;49.736;8.752;2023-05-07T04:15:57;3.85;;;2.63;;
55368;SDS011;41247;49.736;8.752;2023-05-07T04:19:38;5.25;;;3.28;;
55368;SDS011;41247;49.736;8.752;2023-05-07T04:23:19;4.20;;;2.90;;
55368;SDS011;41247;49.736;8.752;2023-05-07T04:26:59;5.32;;;2.65;;
55368;SDS011;41247;49.736;8.752;2023-05-07T04:30:40;10.38;;;3.00;;
55368;SDS011;41247;49.736;8.752;2023-05-07T04:34:20;5.25;;;2.80;;
55368;SDS011;41247;49.736;8.752;2023-05-07T04:38:01;6.80;;;2.90;;
55368;SDS011;41247;49.736;8.752;2023-05-07T04:41:42;4.70;;;2.80;;
55368;SDS011;41247;49.736;8.752;2023-05-07T04:45:22;7.38;;;2.65;;
55368;SDS011;41247;49.736;8.752;2023-05-07T04:49:03;2.88;;;2.40;;
55368;SDS011;41247;49.736;8.752;2023-05-07T04:52:43;5.25;;;2.65;;
55368;SDS011;41247;49.736;8.752;2023-05-07T04:56:26;7.22;;;2.67;;
55368;SDS011;41247;49.736;8.752;2023-05-07T05:00:08;3.45;;;2.25;;
55368;SDS011;41247;49.736;8.752;2023-05-07T05:03:49;4.03;;;2.00;;
55368;SDS011;41247;49.736;8.752;2023-05-07T05:07:30;2.97;;;2.03;;
55368;SDS011;41247;49.736;8.752;2023-05-07T05:11:10;3.42;;;2.05;;
55368;SDS011;41247;49.736;8.752;2023-05-07T05:14:51;4.25;;;2.35;;
55368;SDS011;41247;49.736;8.752;2023-05-07T05:18:32;3.75;;;2.30;;
55368;SDS011;41247;49.736;8.752;2023-05-07T05:22:12;3.38;;;2.10;;
55368;SDS011;41247;49.736;8.752;2023-05-07T05:25:56;3.85;;;2.20;;
55368;SDS011;41247;49.736;8.752;2023-05-07T05:29:37;4.38;;;2.20;;
55368;SDS011;41247;49.736;8.752;2023-05-07T05:33:18;3.45;;;2.08;;
55368;SDS011;41247;49.736;8.752;2023-05-07T05:36:59;5.82;;;2.13;;
55368;SDS011;41247;49.736;8.752;2023-05-07T05:40:39;4.38;;;2.00;;
55368;SDS011;41247;49.736;8.752;2023-05-07T05:44:20;2.72;;;2.20;;
55368;SDS011;41247;49.736;8.752;2023-05-07T05:48:00;4.53;;;2.03;;
55368;SDS011;41247;49.736;8.752;2023-05-07T05:51:41;5.80;;;2.03;;
55368;SDS011;41247;49.736;8.752;2023-05-07T05:55:22;3.22;;;1.90;;
55368;SDS011;41247;49.736;8.752;2023-05-07T05:59:03;3.72;;;2.20;;
55368;SDS011;41247;49.736;8.752;2023-05-07T06:02:44;4.28;;;2.13;;
55368;SDS011;41247;49.736;8.752;2023-05-07T06:06:24;5.38;;;2.30;;
55368;SDS011;41247;49.736;8.752;2023-05-07T06:10:05;4.43;;;2.05;;
55368;SDS011;41247;49.736;8.752;2023-05-07T06:13:47;4.13;;;2.33;;
55368;SDS011;41247;49.736;8.752;2023-05-07T06:17:27;2.40;;;1.92;;
55368;SDS011;41247;49.736;8.752;2023-05-07T06:21:09;5.55;;;2.40;;
55368;SDS011;41247;49.736;8.752;2023-05-07T06:24:50;4.88;;;2.00;;
55368;SDS011;41247;49.736;8.752;2023-05-07T06:28:30;3.95;;;1.92;;
55368;SDS011;41247;49.736;8.752;2023-05-07T06:32:12;3.47;;;2.22;;
55368;SDS011;41247;49.736;8.752;2023-05-07T06:35:53;3.20;;;1.83;;
55368;SDS011;41247;49.736;8.752;2023-05-07T06:39:35;3.25;;;2.20;;
55368;SDS011;41247;49.736;8.752;2023-05-07T06:43:15;7.50;;;2.40;;
55368;SDS011;41247;49.736;8.752;2023-05-07T06:46:56;2.22;;;1.70;;
55368;SDS011;41247;49.736;8.752;2023-05-07T06:50:37;3.63;;;2.03;;
55368;SDS011;41247;49.736;8.752;2023-05-07T06:54:18;4.43;;;2.30;;
55368;SDS011;41247;49.736;8.752;2023-05-07T06:57:58;3.58;;;1.65;;
55368;SDS011;41247;49.736;8.752;2023-05-07T07:01:39;2.60;;;1.67;;
55368;SDS011;41247;49.736;8.752;2023-05-07T07:05:19;3.03;;;1.70;;
55368;SDS011;41247;49.736;8.752;2023-05-07T07:09:00;3.53;;;1.95;;
55368;SDS011;41247;49.736;8.752;2023-05-07T07:12:41;3.95;;;1.70;;
55368;SDS011;41247;49.736;8.752;2023-05-07T07:16:21;3.33;;;1.73;;
55368;SDS011;41247;49.736;8.752;2023-05-07T07:20:02;3.10;;;2.05;;
55368;SDS011;41247;49.736;8.752;2023-05-07T07:23:43;3.10;;;1.80;;
55368;SDS011;41247;49.736;8.752;2023-05-07T07:27:24;3.17;;;1.80;;
55368;SDS011;41247;49.736;8.752;2023-05-07T07:31:05;3.50;;;2.00;;
55368;SDS011;41247;49.736;8.752;2023-05-07T07:34:45;2.67;;;1.65;;
55368;SDS011;41247;49.736;8.752;2023-05-07T07:38:26;2.35;;;1.60;;
55368;SDS011;41247;49.736;8.752;2023-05-07T07:42:06;3.28;;;1.73;;
55368;SDS011;41247;49.736;8.752;2023-05-07T07:45:47;5.68;;;1.88;;
55368;SDS011;41247;49.736;8.752;2023-05-07T07:49:28;5.00;;;2.03;;
55368;SDS011;41247;49.736;8.752;2023-05-07T07:53:08;3.53;;;1.83;;
55368;SDS011;41247;49.736;8.752;2023-05-07T07:56:49;3.05;;;1.90;;
55368;SDS011;41247;49.736;8.752;2023-05-07T08:00:29;2.80;;;1.70;;
55368;SDS011;41247;49.736;8.752;2023-05-07T08:04:10;3.08;;;1.85;;
55368;SDS011;41247;49.736;8.752;2023-05-07T08:07:51;2.50;;;1.73;;
55368;SDS011;41247;49.736;8.752;2023-05-07T08:11:31;5.10;;;2.03;;
55368;SDS011;41247;49.736;8.752;2023-05-07T08:15:12;3.25;;;2.20;;
55368;SDS011;41247;49.736;8.752;2023-05-07T08:18:52;4.38;;;2.10;;
55368;SDS011;41247;49.736;8.752;2023-05-07T08:22:36;2.95;;;2.10;;
55368;SDS011;41247;49.736;8.752;2023-05-07T08:26:17;3.33;;;2.10;;
55368;SDS011;41247;49.736;8.752;2023-05-07T08:29:57;2.67;;;1.90;;
55368;SDS011;41247;49.736;8.752;2023-05-07T08:33:38;5.38;;;2.10;;
55368;SDS011;41247;49.736;8.752;2023-05-07T08:37:18;2.72;;;1.90;;
55368;SDS011;41247;49.736;8.752;2023-05-07T08:40:59;6.13;;;2.20;;
55368;SDS011;41247;49.736;8.752;2023-05-07T08:44:40;2.90;;;1.85;;
55368;SDS011;41247;49.736;8.752;2023-05-07T08:48:25;2.85;;;2.00;;
55368;SDS011;41247;49.736;8.752;2023-05-07T08:52:07;4.03;;;2.38;;
55368;SDS011;41247;49.736;8.752;2023-05-07T08:55:47;2.70;;;1.90;;
55368;SDS011;41247;49.736;8.752;2023-05-07T08:59:28;4.25;;;2.00;;
55368;SDS011;41247;49.736;8.752;2023-05-07T09:03:09;5.13;;;2.28;;
55368;SDS011;41247;49.736;8.752;2023-05-07T09:06:50;3.38;;;2.22;;
55368;SDS011;41247;49.736;8.752;2023-05-07T09:10:32;4.47;;;2.08;;
55368;SDS011;41247;49.736;8.752;2023-05-07T09:14:13;5.68;;;2.30;;
55368;SDS011;41247;49.736;8.752;2023-05-07T09:17:54;3.70;;;1.95;;
55368;SDS011;41247;49.736;8.752;2023-05-07T09:21:40;5.22;;;2.10;;
55368;SDS011;41247;49.736;8.752;2023-05-07T09:25:30;3.42;;;1.83;;
55368;SDS011;41247;49.736;8.752;2023-05-07T09:29:12;2.72;;;2.10;;
55368;SDS011;41247;49.736;8.752;2023-05-07T09:32:53;4.13;;;2.30;;
55368;SDS011;41247;49.736;8.752;2023-05-07T09:36:33;3.72;;;2.45;;
55368;SDS011;41247;49.736;8.752;2023-05-07T09:40:24;3.90;;;2.28;;
55368;SDS011;41247;49.736;8.752;2023-05-07T09:44:10;3.95;;;1.90;;
55368;SDS011;41247;49.736;8.752;2023-05-07T09:47:53;4.68;;;1.70;;
55368;SDS011;41247;49.736;8.752;2023-05-07T09:51:43;2.13;;;1.67;;
55368;SDS011;41247;49.736;8.752;2023-05-07T09:55:28;2.13;;;1.92;;
55368;SDS011;41247;49.736;8.752;2023-05-07T09:59:10;4.97;;;2.17;;
55368;SDS011;41247;49.736;8.752;2023-05-07T10:02:56;2.83;;;2.30;;
55368;SDS011;41247;49.736;8.752;2023-05-07T10:06:38;3.22;;;2.20;;
55368;SDS011;41247;49.736;8.752;2023-05-07T10:10:18;2.25;;;2.05;;
55368;SDS011;41247;49.736;8.752;2023-05-07T10:14:01;2.60;;;1.90;;
55368;SDS011;41247;49.736;8.752;2023-05-07T10:17:43;2.40;;;2.20;;
55368;SDS011;41247;49.736;8.752;2023-05-07T10:21:25;3.88;;;2.50;;
55368;SDS011;41247;49.736;8.752;2023-05-07T10:25:09;3.37;;;2.63;;
55368;SDS011;41247;49.736;8.752;2023-05-07T10:29:05;4.72;;;2.67;;
55368;SDS011;41247;49.736;8.752;2023-05-07T10:32:56;2.80;;;2.60;;
55368;SDS011;41247;49.736;8.752;2023-05-07T10:36:41;5.50;;;2.70;;
55368;SDS011;41247;49.736;8.752;2023-05-07T10:40:23;4.10;;;2.60;;
55368;SDS011;41247;49.736;8.752;2023-05-07T10:44:04;3.25;;;2.95;;
55368;SDS011;41247;49.736;8.752;2023-05-07T10:52:08;3.35;;;2.60;;
55368;SDS011;41247;49.736;8.752;2023-05-07T10:59:57;3.35;;;2.85;;
55368;SDS011;41247;49.736;8.752;2023-05-07T11:04:13;6.15;;;3.30;;
55368;SDS011;41247;49.736;8.752;2023-05-07T11:07:59;5.38;;;2.80;;
55368;SDS011;41247;49.736;8.752;2023-05-07T11:11:47;4.05;;;2.70;;
55368;SDS011;41247;49.736;8.752;2023-05-07T11:15:33;4.38;;;3.30;;
55368;SDS011;41247;49.736;8.752;2023-05-07T11:19:17;5.05;;;3.33;;
55368;SDS011;41247;49.736;8.752;2023-05-07T11:22:57;3.13;;;2.88;;
55368;SDS011;41247;49.736;8.752;2023-05-07T11:26:48;3.67;;;3.20;;
55368;SDS011;41247;49.736;8.752;2023-05-07T11:30:29;3.55;;;3.03;;
55368;SDS011;41247;49.736;8.752;2023-05-07T11:34:10;3.92;;;2.40;;
55368;SDS011;41247;49.736;8.752;2023-05-07T11:37:57;4.10;;;2.50;;
55368;SDS011;41247;49.736;8.752;2023-05-07T11:41:39;5.90;;;2.30;;
55368;SDS011;41247;49.736;8.752;2023-05-07T11:45:23;3.15;;;2.20;;
55368;SDS011;41247;49.736;8.752;2023-05-07T11:49:04;8.60;;;2.78;;
55368;SDS011;41247;49.736;8.752;2023-05-07T11:52:51;4.85;;;3.00;;
55368;SDS011;41247;49.736;8.752;2023-05-07T11:56:33;3.03;;;2.72;;
55368;SDS011;41247;49.736;8.752;2023-05-07T12:00:15;4.40;;;2.20;;
55368;SDS011;41247;49.736;8.752;2023-05-07T12:03:56;4.35;;;2.40;;
55368;SDS011;41247;49.736;8.752;2023-05-07T12:07:36;4.82;;;2.30;;
55368;SDS011;41247;49.736;8.752;2023-05-07T12:11:24;2.67;;;1.95;;
55368;SDS011;41247;49.736;8.752;2023-05-07T12:15:05;3.35;;;2.05;;
55368;SDS011;41247;49.736;8.752;2023-05-07T12:18:47;5.03;;;2.17;;
55368;SDS011;41247;49.736;8.752;2023-05-07T12:22:28;4.40;;;2.20;;
55368;SDS011;41247;49.736;8.752;2023-05-07T12:26:08;2.30;;;2.10;;
55368;SDS011;41247;49.736;8.752;2023-05-07T12:29:49;3.28;;;2.20;;
55368;SDS011;41247;49.736;8.752;2023-05-07T12:33:30;3.00;;;1.95;;
55368;SDS011;41247;49.736;8.752;2023-05-07T12:37:11;3.65;;;1.83;;
55368;SDS011;41247;49.736;8.752;2023-05-07T12:40:55;1.60;;;1.50;;
55368;SDS011;41247;49.736;8.752;2023-05-07T12:44:36;2.88;;;1.40;;
55368;SDS011;41247;49.736;8.752;2023-05-07T12:48:17;3.40;;;2.08;;
55368;SDS011;41247;49.736;8.752;2023-05-07T12:51:59;3.35;;;2.10;;
55368;SDS011;41247;49.736;8.752;2023-05-07T12:55:44;4.90;;;2.15;;
55368;SDS011;41247;49.736;8.752;2023-05-07T12:59:33;2.53;;;2.33;;
55368;SDS011;41247;49.736;8.752;2023-05-07T13:07:15;5.55;;;2.08;;
55368;SDS011;41247;49.736;8.752;2023-05-07T13:10:56;2.33;;;2.00;;
55368;SDS011;41247;49.736;8.752;2023-05-07T13:14:38;2.08;;;1.88;;
55368;SDS011;41247;49.736;8.752;2023-05-07T13:18:19;6.15;;;1.95;;
55368;SDS011;41247;49.736;8.752;2023-05-07T13:21:59;4.40;;;2.25;;
55368;SDS011;41247;49.736;8.752;2023-05-07T13:25:40;4.15;;;2.40;;
55368;SDS011;41247;49.736;8.752;2023-05-07T13:29:20;3.58;;;2.33;;
55368;SDS011;41247;49.736;8.752;2023-05-07T13:33:01;2.63;;;2.22;;
55368;SDS011;41247;49.736;8.752;2023-05-07T13:36:42;3.08;;;2.10;;
55368;SDS011;41247;49.736;8.752;2023-05-07T13:40:23;3.33;;;2.55;;
55368;SDS011;41247;49.736;8.752;2023-05-07T13:44:03;3.50;;;2.55;;
55368;SDS011;41247;49.736;8.752;2023-05-07T13:47:44;6.70;;;2.55;;
55368;SDS011;41247;49.736;8.752;2023-05-07T13:51:26;5.53;;;2.42;;
55368;SDS011;41247;49.736;8.752;2023-05-07T13:55:06;3.58;;;2.25;;
55368;SDS011;41247;49.736;8.752;2023-05-07T13:58:47;2.75;;;2.45;;
55368;SDS011;41247;49.736;8.752;2023-05-07T14:02:28;3.28;;;2.25;;
55368;SDS011;41247;49.736;8.752;2023-05-07T14:06:08;6.47;;;2.58;;
55368;SDS011;41247;49.736;8.752;2023-05-07T14:09:49;4.18;;;2.78;;
55368;SDS011;41247;49.736;8.752;2023-05-07T14:13:29;3.55;;;2.40;;
55368;SDS011;41247;49.736;8.752;2023-05-07T14:17:10;3.15;;;2.63;;
55368;SDS011;41247;49.736;8.752;2023-05-07T14:20:50;2.70;;;2.15;;
55368;SDS011;41247;49.736;8.752;2023-05-07T14:24:31;2.65;;;2.45;;
55368;SDS011;41247;49.736;8.752;2023-05-07T14:28:12;2.55;;;2.25;;
55368;SDS011;41247;49.736;8.752;2023-05-07T14:31:52;4.20;;;2.55;;
55368;SDS011;41247;49.736;8.752;2023-05-07T14:35:33;4.82;;;2.92;;
55368;SDS011;41247;49.736;8.752;2023-05-07T14:39:13;3.38;;;2.80;;
55368;SDS011;41247;49.736;8.752;2023-05-07T14:42:54;3.30;;;2.50;;
55368;SDS011;41247;49.736;8.752;2023-05-07T14:46:35;2.97;;;2.60;;
55368;SDS011;41247;49.736;8.752;2023-05-07T14:50:15;3.03;;;2.30;;
55368;SDS011;41247;49.736;8.752;2023-05-07T14:53:56;5.03;;;2.45;;
55368;SDS011;41247;49.736;8.752;2023-05-07T14:57:36;4.25;;;2.50;;
55368;SDS011;41247;49.736;8.752;2023-05-07T15:01:17;3.60;;;2.53;;
55368;SDS011;41247;49.736;8.752;2023-05-07T15:04:58;2.83;;;2.53;;
55368;SDS011;41247;49.736;8.752;2023-05-07T15:08:39;3.03;;;2.50;;
55368;SDS011;41247;49.736;8.752;2023-05-07T15:12:19;4.63;;;2.80;;
55368;SDS011;41247;49.736;8.752;2023-05-07T15:16:00;2.97;;;2.67;;
55368;SDS011;41247;49.736;8.752;2023-05-07T15:19:41;4.32;;;2.72;;
55368;SDS011;41247;49.736;8.752;2023-05-07T15:23:21;7.47;;;3.85;;
55368;SDS011;41247;49.736;8.752;2023-05-07T15:27:02;5.03;;;3.67;;
55368;SDS011;41247;49.736;8.752;2023-05-07T15:30:42;9.52;;;4.70;;
55368;SDS011;41247;49.736;8.752;2023-05-07T15:34:23;12.65;;;7.70;;
55368;SDS011;41247;49.736;8.752;2023-05-07T15:38:04;8.77;;;4.97;;
55368;SDS011;41247;49.736;8.752;2023-05-07T15:41:44;7.85;;;3.40;;
55368;SDS011;41247;49.736;8.752;2023-05-07T15:45:25;4.50;;;2.92;;
55368;SDS011;41247;49.736;8.752;2023-05-07T15:49:06;7.07;;;3.10;;
55368;SDS011;41247;49.736;8.752;2023-05-07T15:52:46;7.25;;;2.53;;
55368;SDS011;41247;49.736;8.752;2023-05-07T15:56:27;5.65;;;3.90;;
55368;SDS011;41247;49.736;8.752;2023-05-07T16:00:07;11.35;;;6.65;;
55368;SDS011;41247;49.736;8.752;2023-05-07T16:03:49;8.20;;;3.85;;
55368;SDS011;41247;49.736;8.752;2023-05-07T16:07:29;10.73;;;3.92;;
55368;SDS011;41247;49.736;8.752;2023-05-07T16:11:10;20.00;;;4.63;;
55368;SDS011;41247;49.736;8.752;2023-05-07T16:14:50;8.50;;;3.85;;
55368;SDS011;41247;49.736;8.752;2023-05-07T16:18:31;12.40;;;4.43;;
55368;SDS011;41247;49.736;8.752;2023-05-07T16:22:12;10.20;;;4.10;;
55368;SDS011;41247;49.736;8.752;2023-05-07T16:25:52;6.47;;;4.20;;
55368;SDS011;41247;49.736;8.752;2023-05-07T16:29:33;9.60;;;4.05;;
55368;SDS011;41247;49.736;8.752;2023-05-07T16:33:13;9.38;;;4.25;;
55368;SDS011;41247;49.736;8.752;2023-05-07T16:36:54;9.02;;;4.50;;
55368;SDS011;41247;49.736;8.752;2023-05-07T16:40:36;7.25;;;4.22;;
55368;SDS011;41247;49.736;8.752;2023-05-07T16:44:20;7.13;;;3.28;;
55368;SDS011;41247;49.736;8.752;2023-05-07T16:48:01;7.53;;;4.00;;
55368;SDS011;41247;49.736;8.752;2023-05-07T16:51:41;7.93;;;3.90;;
55368;SDS011;41247;49.736;8.752;2023-05-07T16:55:22;8.27;;;3.92;;
55368;SDS011;41247;49.736;8.752;2023-05-07T16:59:03;5.00;;;3.80;;
55368;SDS011;41247;49.736;8.752;2023-05-07T17:02:43;5.13;;;3.78;;
55368;SDS011;41247;49.736;8.752;2023-05-07T17:06:24;6.38;;;2.90;;
55368;SDS011;41247;49.736;8.752;2023-05-07T17:10:05;4.13;;;3.28;;
55368;SDS011;41247;49.736;8.752;2023-05-07T17:13:46;4.78;;;2.78;;
55368;SDS011;41247;49.736;8.752;2023-05-07T17:17:27;3.90;;;2.40;;
55368;SDS011;41247;49.736;8.752;2023-05-07T17:21:07;2.78;;;2.00;;
55368;SDS011;41247;49.736;8.752;2023-05-07T17:24:48;2.30;;;2.10;;
55368;SDS011;41247;49.736;8.752;2023-05-07T17:28:28;5.45;;;3.38;;
55368;SDS011;41247;49.736;8.752;2023-05-07T17:32:09;2.80;;;2.47;;
55368;SDS011;41247;49.736;8.752;2023-05-07T17:35:51;4.97;;;1.85;;
55368;SDS011;41247;49.736;8.752;2023-05-07T17:39:32;3.25;;;2.00;;
55368;SDS011;41247;49.736;8.752;2023-05-07T17:43:13;2.38;;;1.50;;
55368;SDS011;41247;49.736;8.752;2023-05-07T17:46:54;2.45;;;1.50;;
55368;SDS011;41247;49.736;8.752;2023-05-07T17:50:35;5.07;;;1.90;;
55368;SDS011;41247;49.736;8.752;2023-05-07T17:54:15;3.58;;;1.83;;
55368;SDS011;41247;49.736;8.752;2023-05-07T17:57:56;2.85;;;1.80;;
55368;SDS011;41247;49.736;8.752;2023-05-07T18:01:36;2.20;;;1.63;;
55368;SDS011;41247;49.736;8.752;2023-05-07T18:05:17;1.50;;;1.40;;
55368;SDS011;41247;49.736;8.752;2023-05-07T18:08:58;2.30;;;1.60;;
55368;SDS011;41247;49.736;8.752;2023-05-07T18:12:38;3.35;;;1.40;;
55368;SDS011;41247;49.736;8.752;2023-05-07T18:16:19;1.70;;;1.50;;
55368;SDS011;41247;49.736;8.752;2023-05-07T18:19:59;4.25;;;1.27;;
55368;SDS011;41247;49.736;8.752;2023-05-07T18:23:40;1.33;;;0.80;;
55368;SDS011;41247;49.736;8.752;2023-05-07T18:27:21;1.42;;;1.10;;
55368;SDS011;41247;49.736;8.752;2023-05-07T18:31:01;2.35;;;1.30;;
55368;SDS011;41247;49.736;8.752;2023-05-07T18:34:43;2.05;;;1.50;;
55368;SDS011;41247;49.736;8.752;2023-05-07T18:38:24;4.30;;;1.40;;
55368;SDS011;41247;49.736;8.752;2023-05-07T18:42:05;2.78;;;1.38;;
55368;SDS011;41247;49.736;8.752;2023-05-07T18:45:46;3.83;;;1.60;;
55368;SDS011;41247;49.736;8.752;2023-05-07T18:49:27;1.98;;;1.60;;
55368;SDS011;41247;49.736;8.752;2023-05-07T18:53:08;2.92;;;1.80;;
55368;SDS011;41247;49.736;8.752;2023-05-07T18:56:48;2.17;;;1.98;;
55368;SDS011;41247;49.736;8.752;2023-05-07T19:00:29;3.58;;;2.35;;
55368;SDS011;41247;49.736;8.752;2023-05-07T19:04:10;2.60;;;2.00;;
55368;SDS011;41247;49.736;8.752;2023-05-07T19:07:50;7.10;;;2.33;;
55368;SDS011;41247;49.736;8.752;2023-05-07T19:11:31;2.78;;;2.13;;
55368;SDS011;41247;49.736;8.752;2023-05-07T19:15:11;2.88;;;2.00;;
55368;SDS011;41247;49.736;8.752;2023-05-07T19:18:52;3.15;;;2.13;;
55368;SDS011;41247;49.736;8.752;2023-05-07T19:22:33;1.83;;;1.40;;
55368;SDS011;41247;49.736;8.752;2023-05-07T19:26:13;1.73;;;1.50;;
55368;SDS011;41247;49.736;8.752;2023-05-07T19:29:54;2.90;;;1.60;;
55368;SDS011;41247;49.736;8.752;2023-05-07T19:33:34;3.55;;;1.63;;
55368;SDS011;41247;49.736;8.752;2023-05-07T19:37:15;3.33;;;1.58;;
55368;SDS011;41247;49.736;8.752;2023-05-07T19:40:56;5.30;;;1.88;;
55368;SDS011;41247;49.736;8.752;2023-05-07T19:44:36;4.60;;;1.95;;
55368;SDS011;41247;49.736;8.752;2023-05-07T19:48:17;3.53;;;2.10;;
55368;SDS011;41247;49.736;8.752;2023-05-07T19:51:57;5.10;;;2.58;;
55368;SDS011;41247;49.736;8.752;2023-05-07T19:55:38;4.60;;;2.45;;
55368;SDS011;41247;49.736;8.752;2023-05-07T19:59:18;3.28;;;2.95;;
55368;SDS011;41247;49.736;8.752;2023-05-07T20:02:59;7.78;;;3.85;;
55368;SDS011;41247;49.736;8.752;2023-05-07T20:06:40;3.17;;;2.80;;
55368;SDS011;41247;49.736;8.752;2023-05-07T20:10:20;5.57;;;3.35;;
55368;SDS011;41247;49.736;8.752;2023-05-07T20:14:01;4.03;;;3.10;;
55368;SDS011;41247;49.736;8.752;2023-05-07T20:17:42;7.18;;;3.85;;
55368;SDS011;41247;49.736;8.752;2023-05-07T20:21:22;6.10;;;3.42;;
55368;SDS011;41247;49.736;8.752;2023-05-07T20:25:03;6.32;;;4.10;;
55368;SDS011;41247;49.736;8.752;2023-05-07T20:28:44;6.80;;;3.92;;
55368;SDS011;41247;49.736;8.752;2023-05-07T20:32:25;13.45;;;4.78;;
55368;SDS011;41247;49.736;8.752;2023-05-07T20:36:06;5.38;;;4.13;;
55368;SDS011;41247;49.736;8.752;2023-05-07T20:39:47;17.38;;;5.47;;
55368;SDS011;41247;49.736;8.752;2023-05-07T20:43:27;7.68;;;4.15;;
55368;SDS011;41247;49.736;8.752;2023-05-07T20:47:08;15.95;;;8.80;;
55368;SDS011;41247;49.736;8.752;2023-05-07T20:50:49;17.45;;;9.57;;
55368;SDS011;41247;49.736;8.752;2023-05-07T20:54:29;19.83;;;10.43;;
55368;SDS011;41247;49.736;8.752;2023-05-07T20:58:11;15.48;;;9.55;;
55368;SDS011;41247;49.736;8.752;2023-05-07T21:01:51;19.80;;;11.07;;
55368;SDS011;41247;49.736;8.752;2023-05-07T21:05:32;23.75;;;11.90;;
55368;SDS011;41247;49.736;8.752;2023-05-07T21:09:13;21.25;;;11.82;;
55368;SDS011;41247;49.736;8.752;2023-05-07T21:12:54;24.77;;;14.07;;
55368;SDS011;41247;49.736;8.752;2023-05-07T21:16:34;27.92;;;15.93;;
55368;SDS011;41247;49.736;8.752;2023-05-07T21:20:15;39.78;;;18.60;;
55368;SDS011;41247;49.736;8.752;2023-05-07T21:23:56;40.88;;;18.92;;
55368;SDS011;41247;49.736;8.752;2023-05-07T21:27:37;41.50;;;20.17;;
55368;SDS011;41247;49.736;8.752;2023-05-07T21:31:18;38.90;;;20.27;;
55368;SDS011;41247;49.736;8.752;2023-05-07T21:34:59;43.30;;;21.50;;
55368;SDS011;41247;49.736;8.752;2023-05-07T21:38:39;44.55;;;21.55;;
55368;SDS011;41247;49.736;8.752;2023-05-07T21:42:20;45.33;;;21.80;;
55368;SDS011;41247;49.736;8.752;2023-05-07T21:46:00;36.88;;;20.23;;
55368;SDS011;41247;49.736;8.752;2023-05-07T21:49:48;40.13;;;19.60;;
55368;SDS011;41247;49.736;8.752;2023-05-07T21:53:29;28.05;;;16.20;;
55368;SDS011;41247;49.736;8.752;2023-05-07T21:57:09;30.45;;;15.57;;
55368;SDS011;41247;49.736;8.752;2023-05-07T22:00:50;20.73;;;10.70;;
55368;SDS011;41247;49.736;8.752;2023-05-07T22:04:31;17.95;;;10.15;;
55368;SDS011;41247;49.736;8.752;2023-05-07T22:08:11;24.00;;;11.63;;
55368;SDS011;41247;49.736;8.752;2023-05-07T22:11:52;27.23;;;13.52;;
55368;SDS011;41247;49.736;8.752;2023-05-07T22:15:32;28.27;;;14.70;;
55368;SDS011;41247;49.736;8.752;2023-05-07T22:19:13;30.92;;;15.30;;
55368;SDS011;41247;49.736;8.752;2023-05-07T22:22:54;26.45;;;14.13;;